Time;durP1;ratioP1;P1;durP2;ratioP2;P2;SDS_P1;SDS_P2;PMS_P1;PMS_P2;Temp;Humidity;BMP_temperature;BMP_pressure;BME280_temperature;BME280_humidity;BME280_pressure;Samples;Min_cycle;Max_cycle;Signal;HPM_P1;HPM_P2
2024/04/14 00:00:37;;;;;;;10.43;6.80;;;;;;;18.61;56.50;101138.31;5275667;27;20775;-76
2024/04/14 00:03:03;;;;;;;7.07;4.67;;;;;;;18.11;57.24;101143.53;5275895;27;20617;-76
2024/04/14 00:05:28;;;;;;;6.50;4.30;;;;;;;18.56;56.23;101137.50;5278786;27;20223;-76
2024/04/14 00:07:54;;;;;;;7.97;5.20;;;;;;;18.16;56.96;101147.81;5279276;27;20223;-76
2024/04/14 00:10:19;;;;;;;7.10;4.10;;;;;;;18.10;57.29;101140.00;5276596;27;20231;-75
2024/04/14 00:12:44;;;;;;;9.93;4.33;;;;;;;18.04;56.96;101132.19;5275654;27;20240;-75
2024/04/14 00:15:09;;;;;;;10.97;5.13;;;;;;;18.22;56.32;101138.06;5276201;27;20582;-76
2024/04/14 00:17:36;;;;;;;6.67;4.60;;;;;;;18.14;56.39;101149.63;5275625;27;20223;-76
2024/04/14 00:20:03;;;;;;;7.70;5.07;;;;;;;18.48;55.67;101142.91;5275152;27;20278;-75
2024/04/14 00:22:28;;;;;;;8.70;4.57;;;;;;;17.96;56.95;101137.56;5245779;27;20474;-75
2024/04/14 00:24:55;;;;;;;7.50;4.83;;;;;;;18.14;56.72;101131.16;5275540;27;20548;-75
2024/04/14 00:27:21;;;;;;;7.47;3.97;;;;;;;17.90;56.77;101134.13;5275402;27;20245;-74
2024/04/14 00:29:46;;;;;;;12.53;4.90;;;;;;;17.84;57.36;101133.31;5275067;27;20438;-77
2024/04/14 00:32:11;;;;;;;10.50;4.40;;;;;;;18.48;56.11;101127.06;5277255;27;20509;-76
2024/04/14 00:34:36;;;;;;;8.80;4.30;;;;;;;18.50;55.65;101134.06;5249121;27;20235;-75
2024/04/14 00:37:02;;;;;;;7.27;4.90;;;;;;;18.51;56.06;101127.91;5279053;27;20223;-75
2024/04/14 00:39:27;;;;;;;7.20;4.10;;;;;;;18.50;56.52;101123.53;5278361;27;20239;-76
2024/04/14 00:41:52;;;;;;;9.23;4.87;;;;;;;18.80;55.20;101123.00;5278246;27;20239;-76
2024/04/14 00:44:17;;;;;;;9.53;5.17;;;;;;;19.07;54.49;101112.84;5278768;27;20717;-76
2024/04/14 00:46:43;;;;;;;7.80;4.23;;;;;;;18.86;55.26;101130.81;5278274;27;20616;-74
2024/04/14 00:49:10;;;;;;;8.53;4.80;;;;;;;17.89;57.58;101130.63;5278357;27;20764;-76
2024/04/14 00:51:35;;;;;;;10.83;4.90;;;;;;;18.02;57.53;101139.25;5278619;27;20215;-75
2024/04/14 00:54:01;;;;;;;9.07;5.77;;;;;;;18.14;57.88;101131.16;5278332;27;20469;-76
2024/04/14 00:56:27;;;;;;;9.80;4.77;;;;;;;17.70;58.64;101132.66;5278154;27;20239;-75
2024/04/14 00:58:53;;;;;;;13.17;5.10;;;;;;;17.89;58.44;101141.16;5248479;27;20572;-75
2024/04/14 01:01:20;;;;;;;6.47;4.57;;;;;;;18.20;57.72;101145.13;5278283;27;20528;-75
2024/04/14 01:03:45;;;;;;;9.10;5.40;;;;;;;18.16;57.26;101133.78;5278439;27;20223;-76
2024/04/14 01:06:10;;;;;;;10.90;5.57;;;;;;;17.98;58.32;101142.81;5277745;27;20508;-76
2024/04/14 01:08:36;;;;;;;8.30;4.90;;;;;;;18.10;57.17;101140.00;5278197;27;20219;-76
2024/04/14 01:11:01;;;;;;;7.60;5.07;;;;;;;17.54;58.61;101146.94;5277582;27;20215;-76
2024/04/14 01:13:26;;;;;;;8.40;5.30;;;;;;;17.93;57.93;101149.94;5277976;27;20235;-75
2024/04/14 01:15:52;;;;;;;11.30;5.37;;;;;;;18.27;57.82;101160.00;5278071;27;20321;-76
2024/04/14 01:18:17;;;;;;;8.33;5.20;;;;;;;18.10;58.58;101163.75;5277884;27;20223;-76
2024/04/14 01:20:42;;;;;;;8.17;5.77;;;;;;;18.01;60.83;101159.47;5278011;27;20596;-76
2024/04/14 01:23:07;;;;;;;6.83;5.50;;;;;;;17.68;62.22;101166.94;5278067;27;20699;-76
2024/04/14 01:25:33;;;;;;;7.10;5.20;;;;;;;17.11;63.23;101164.97;5278803;27;20223;-75
2024/04/14 01:27:58;;;;;;;7.27;4.90;;;;;;;16.86;64.55;101166.06;5278461;27;20219;-77
2024/04/14 01:30:23;;;;;;;10.17;7.10;;;;;;;17.09;63.97;101157.97;5278824;27;20277;-75
2024/04/14 01:32:48;;;;;;;8.43;5.57;;;;;;;17.13;64.79;101178.13;5278877;27;20274;-75
2024/04/14 01:35:14;;;;;;;9.80;5.53;;;;;;;16.82;64.33;101171.38;5278979;27;20314;-75
2024/04/14 01:37:39;;;;;;;9.17;5.63;;;;;;;17.09;64.16;101166.75;5279209;27;20220;-75
2024/04/14 01:40:05;;;;;;;9.30;6.00;;;;;;;17.12;63.95;101171.13;5280212;27;20227;-76
2024/04/14 01:42:31;;;;;;;11.77;9.10;;;;;;;17.32;63.25;101157.72;5279303;27;20728;-76
2024/04/14 01:44:56;;;;;;;13.27;5.90;;;;;;;17.44;63.48;101162.84;5279558;27;20462;-75
2024/04/14 01:47:22;;;;;;;10.33;6.10;;;;;;;16.81;63.79;101164.34;5278846;27;20249;-76
2024/04/14 01:49:47;;;;;;;9.20;5.07;;;;;;;17.64;62.06;101174.91;5278620;27;20227;-76
2024/04/14 01:52:12;;;;;;;10.70;5.73;;;;;;;17.19;63.30;101169.31;5278405;27;20239;-76
2024/04/14 01:54:38;;;;;;;8.67;5.80;;;;;;;16.97;62.88;101165.13;5277655;27;20721;-76
2024/04/14 01:57:03;;;;;;;10.40;6.07;;;;;;;16.79;64.54;101167.88;5277731;27;20340;-76
2024/04/14 01:59:28;;;;;;;10.03;6.23;;;;;;;16.91;64.12;101173.06;5278064;27;20816;-76
2024/04/14 02:01:54;;;;;;;10.07;6.10;;;;;;;16.98;63.81;101173.88;5277814;27;20253;-75
2024/04/14 02:04:19;;;;;;;12.70;6.40;;;;;;;16.69;64.16;101176.78;5279448;27;20235;-76
2024/04/14 02:06:44;;;;;;;14.53;6.57;;;;;;;16.91;64.30;101172.19;5281051;27;20609;-76
2024/04/14 02:09:09;;;;;;;8.00;5.47;;;;;;;16.81;64.06;101182.78;5277809;27;20230;-76
2024/04/14 02:11:35;;;;;;;12.23;6.00;;;;;;;16.75;64.29;101184.59;5277606;27;20223;-76
2024/04/14 02:14:01;;;;;;;9.87;6.50;;;;;;;16.77;63.72;101191.59;5277704;27;20266;-76
2024/04/14 02:16:27;;;;;;;8.93;5.87;;;;;;;16.48;64.32;101200.63;5277787;27;20282;-76
2024/04/14 02:18:52;;;;;;;9.53;5.77;;;;;;;16.50;64.76;101203.22;5277411;27;20562;-75
2024/04/14 02:21:17;;;;;;;8.73;5.67;;;;;;;16.60;63.95;101204.03;5277597;27;20317;-75
2024/04/14 02:23:43;;;;;;;10.70;6.07;;;;;;;16.02;64.52;101216.72;5277274;27;20247;-76
2024/04/14 02:26:08;;;;;;;11.23;5.80;;;;;;;15.94;63.38;101213.22;5277235;27;20235;-75
2024/04/14 02:28:34;;;;;;;12.53;5.70;;;;;;;15.97;63.10;101229.00;5277110;27;20219;-75
2024/04/14 02:30:59;;;;;;;10.90;6.03;;;;;;;16.35;62.00;101227.91;5277529;27;20227;-74
2024/04/14 02:33:25;;;;;;;10.43;4.53;;;;;;;16.54;60.58;101214.63;5277384;27;20242;-77
2024/04/14 02:35:58;;;;;;;9.97;4.87;;;;;;;16.24;60.51;101227.09;5277586;27;20328;-75
2024/04/14 02:38:24;;;;;;;9.70;6.50;;;;;;;16.22;60.31;101232.34;5277450;27;20283;-74
2024/04/14 02:41:01;;;;;;;7.07;4.10;;;;;;;15.73;60.77;101229.94;5277663;27;20446;-75
2024/04/14 02:43:27;;;;;;;8.10;4.70;;;;;;;15.92;60.05;101239.53;5277135;27;20277;-74
2024/04/14 02:45:53;;;;;;;8.80;3.90;;;;;;;15.65;60.01;101254.50;5277448;27;20949;-75
2024/04/14 02:48:19;;;;;;;10.57;5.80;;;;;;;15.71;59.57;101261.50;5276843;27;20458;-76
2024/04/14 02:50:44;;;;;;;8.10;4.60;;;;;;;16.07;58.81;101246.47;5277780;27;20446;-75
2024/04/14 02:53:12;;;;;;;9.70;4.37;;;;;;;15.68;59.90;101258.00;5277224;27;20317;-75
2024/04/14 02:55:38;;;;;;;8.50;4.30;;;;;;;15.80;59.61;101248.34;5276998;27;20281;-74
2024/04/14 02:58:05;;;;;;;6.57;4.17;;;;;;;15.46;59.74;101258.91;5277020;27;21004;-75
2024/04/14 03:00:30;;;;;;;13.53;4.60;;;;;;;15.60;59.39;101252.75;5276956;27;20219;-75
2024/04/14 03:02:56;;;;;;;8.50;4.27;;;;;;;15.56;59.14;101258.91;5277103;27;21063;-75
2024/04/14 03:05:22;;;;;;;6.57;4.07;;;;;;;15.62;58.91;101267.63;5276866;27;20219;-75
2024/04/14 03:07:47;;;;;;;8.17;4.00;;;;;;;15.49;59.55;101272.06;5246511;27;20227;-75
2024/04/14 03:10:13;;;;;;;12.23;4.07;;;;;;;15.86;58.30;101272.84;5276471;27;20499;-76
2024/04/14 03:12:39;;;;;;;6.57;3.90;;;;;;;15.33;58.83;101291.38;5276085;27;20239;-75
2024/04/14 03:15:05;;;;;;;6.20;3.60;;;;;;;15.29;58.94;101279.13;5276863;27;20229;-76
2024/04/14 03:17:31;;;;;;;7.50;3.50;;;;;;;15.42;57.74;101265.06;5276880;27;20545;-75
2024/04/14 03:19:56;;;;;;;7.53;3.40;;;;;;;15.49;56.54;101279.06;5276431;27;20438;-75
2024/04/14 03:22:21;;;;;;;9.90;3.80;;;;;;;15.31;56.46;101275.59;5276352;27;20281;-76
2024/04/14 03:24:47;;;;;;;7.80;3.90;;;;;;;15.41;56.27;101268.59;5276407;27;20344;-76
2024/04/14 03:27:12;;;;;;;6.80;3.50;;;;;;;15.22;56.71;101277.34;5276602;27;20227;-75
2024/04/14 03:29:38;;;;;;;10.30;4.00;;;;;;;15.16;57.07;101286.13;5276532;27;20226;-76
2024/04/14 03:32:05;;;;;;;5.60;3.90;;;;;;;15.50;56.29;101280.81;5276318;27;20661;-76
2024/04/14 03:34:30;;;;;;;7.90;3.57;;;;;;;15.25;56.74;101295.72;5276420;27;20578;-77
2024/04/14 03:36:55;;;;;;;9.37;3.80;;;;;;;15.12;56.77;101305.38;5276395;27;20795;-75
2024/04/14 03:39:21;;;;;;;8.83;3.87;;;;;;;15.03;57.16;101301.00;5276031;27;20227;-76
2024/04/14 03:41:46;;;;;;;8.83;4.10;;;;;;;15.28;55.88;101301.00;5276516;27;20636;-76
2024/04/14 03:44:11;;;;;;;7.20;2.90;;;;;;;15.22;56.32;101314.13;5276267;27;20227;-76
2024/04/14 03:46:36;;;;;;;7.60;3.77;;;;;;;14.86;56.16;101315.88;5276101;27;20215;-76
2024/04/14 03:49:02;;;;;;;6.13;3.20;;;;;;;14.93;56.21;101320.25;5275934;27;20219;-76
2024/04/14 03:51:27;;;;;;;7.77;3.40;;;;;;;15.04;55.46;101322.88;5276023;27;20226;-76
2024/04/14 03:53:52;;;;;;;8.17;3.27;;;;;;;15.02;55.61;101328.16;5276192;27;20286;-75
2024/04/14 03:56:17;;;;;;;7.70;3.77;;;;;;;14.04;57.41;101326.94;5276134;27;20227;-75
2024/04/14 03:58:43;;;;;;;7.90;3.40;;;;;;;14.64;56.82;101331.59;5275874;27;20269;-76
2024/04/14 04:01:08;;;;;;;10.20;4.40;;;;;;;15.15;55.59;101332.53;5276259;27;20261;-75
2024/04/14 04:03:33;;;;;;;14.73;4.27;;;;;;;14.89;55.94;101329.88;5277617;27;20243;-76
2024/04/14 04:05:59;;;;;;;10.33;4.73;;;;;;;14.78;56.02;101332.47;5277016;27;20219;-75
2024/04/14 04:08:24;;;;;;;11.13;4.13;;;;;;;14.96;55.53;101343.88;5251272;27;20681;-75
2024/04/14 04:11:02;;;;;;;11.57;6.03;;;;;;;14.94;55.48;101349.13;5279864;27;20428;-75
2024/04/14 04:13:27;;;;;;;7.27;3.70;;;;;;;14.62;55.78;101349.03;5280095;27;20281;-75
2024/04/14 04:16:00;;;;;;;7.43;3.27;;;;;;;14.39;54.84;101344.59;5279985;27;20446;-75
2024/04/14 04:18:26;;;;;;;6.37;3.60;;;;;;;13.98;54.92;101354.03;5249904;27;20242;-75
2024/04/14 04:20:55;;;;;;;13.47;3.87;;;;;;;14.71;53.54;101354.34;5279479;27;20454;-76
2024/04/14 04:23:21;;;;;;;6.37;2.93;;;;;;;14.50;54.21;101357.75;5279356;27;20278;-75
2024/04/14 04:25:46;;;;;;;7.20;3.87;;;;;;;14.08;54.32;101357.56;5279376;27;20836;-75
2024/04/14 04:28:11;;;;;;;8.40;3.40;;;;;;;14.36;54.13;101355.06;5279006;27;20219;-75
2024/04/14 04:30:37;;;;;;;9.37;4.03;;;;;;;14.04;54.50;101361.03;5249430;27;20279;-75
2024/04/14 04:33:02;;;;;;;10.40;3.70;;;;;;;14.28;54.00;101368.16;5279065;27;20235;-75
2024/04/14 04:35:28;;;;;;;14.10;3.97;;;;;;;14.57;53.91;101366.50;5279005;27;20219;-75
2024/04/14 04:37:53;;;;;;;13.27;5.30;;;;;;;14.27;54.17;101371.63;5280270;27;20266;-75
2024/04/14 04:40:18;;;;;;;9.83;4.30;;;;;;;14.52;53.21;101371.75;5280279;27;20337;-76
2024/04/14 04:42:44;;;;;;;9.60;2.93;;;;;;;14.17;53.81;101371.59;5279971;27;20698;-75
2024/04/14 04:45:09;;;;;;;19.17;9.80;;;;;;;14.45;54.08;101375.19;5248887;27;20231;-75
2024/04/14 04:47:34;;;;;;;10.73;4.63;;;;;;;14.75;53.15;101379.72;5278196;27;20235;-74
2024/04/14 04:50:00;;;;;;;10.33;4.80;;;;;;;14.51;53.74;101377.88;5278438;27;20235;-75
2024/04/14 04:52:25;;;;;;;11.53;4.00;;;;;;;14.84;52.91;101378.00;5278406;27;20274;-75
2024/04/14 04:54:50;;;;;;;6.10;3.40;;;;;;;14.68;53.29;101377.97;5279129;27;20282;-75
2024/04/14 04:57:15;;;;;;;11.30;4.40;;;;;;;14.74;53.12;101388.47;5278527;27;20219;-75
2024/04/14 04:59:41;;;;;;;14.70;7.40;;;;;;;14.69;53.41;101391.94;5278313;27;20231;-75
2024/04/14 05:02:06;;;;;;;8.93;4.63;;;;;;;14.51;54.26;101390.13;5278948;27;20766;-76
2024/04/14 05:04:31;;;;;;;7.90;4.30;;;;;;;13.96;55.12;101405.59;5278874;27;20231;-75
2024/04/14 05:06:58;;;;;;;8.03;3.20;;;;;;;14.28;54.63;101401.38;5279633;27;20227;-75
2024/04/14 05:09:24;;;;;;;9.30;3.80;;;;;;;14.23;55.22;101403.09;5279807;27;20231;-75
2024/04/14 05:11:49;;;;;;;8.50;3.90;;;;;;;14.81;53.48;101405.97;5280202;27;20438;-75
2024/04/14 05:14:14;;;;;;;5.63;3.17;;;;;;;14.39;54.16;101406.69;5280024;27;20231;-76
2024/04/14 05:16:40;;;;;;;10.47;3.50;;;;;;;13.73;55.29;101409.78;5278871;27;20274;-76
2024/04/14 05:19:05;;;;;;;5.70;3.00;;;;;;;14.41;54.38;101410.16;5277279;27;20224;-75
2024/04/14 05:21:30;;;;;;;11.30;3.70;;;;;;;14.05;54.54;101417.00;5278484;27;20302;-75
2024/04/14 05:23:55;;;;;;;10.17;3.80;;;;;;;14.57;53.84;101408.50;5278219;27;20729;-75
2024/04/14 05:26:20;;;;;;;7.20;3.67;;;;;;;14.26;54.04;101413.59;5251421;27;20253;-75
2024/04/14 05:28:46;;;;;;;7.50;3.70;;;;;;;14.12;54.40;101418.78;5278257;27;20231;-76
2024/04/14 05:31:11;;;;;;;9.20;3.77;;;;;;;14.51;53.62;101418.97;5278126;27;20223;-75
2024/04/14 05:33:36;;;;;;;8.20;3.90;;;;;;;14.49;53.60;101424.19;5248022;27;20263;-75
2024/04/14 05:36:02;;;;;;;10.23;4.50;;;;;;;14.45;54.70;101422.44;5278256;27;20579;-75
2024/04/14 05:38:27;;;;;;;7.97;4.20;;;;;;;14.29;53.78;101422.38;5279296;27;20265;-75
2024/04/14 05:40:52;;;;;;;9.70;4.40;;;;;;;13.87;54.45;101434.34;5279315;27;20335;-75
2024/04/14 05:43:18;;;;;;;10.60;4.57;;;;;;;13.90;54.96;101436.97;5291741;21;20301;-73
2024/04/14 05:45:43;;;;;;;9.13;3.30;;;;;;;14.63;52.73;101438.28;5277837;27;20274;-74
2024/04/14 05:48:08;;;;;;;9.57;3.43;;;;;;;14.32;53.50;101434.63;5277264;27;20609;-74
2024/04/14 05:50:34;;;;;;;15.63;4.23;;;;;;;14.75;52.60;101436.59;5277371;27;20261;-74
2024/04/14 05:52:59;;;;;;;13.87;3.70;;;;;;;13.96;53.64;101433.53;5247796;27;20231;-74
2024/04/14 05:55:24;;;;;;;6.50;3.30;;;;;;;14.79;52.46;101439.22;5277280;27;20282;-73
2024/04/14 05:57:49;;;;;;;8.77;3.73;;;;;;;14.58;52.14;101442.59;5277368;27;20254;-73
2024/04/14 06:00:15;;;;;;;13.47;4.03;;;;;;;14.18;52.80;101449.38;5277627;27;20745;-73
2024/04/14 06:02:40;;;;;;;13.70;3.80;;;;;;;14.25;52.59;101459.06;5247614;27;20266;-72
2024/04/14 06:05:05;;;;;;;8.37;3.63;;;;;;;14.39;52.54;101473.13;5277417;27;20238;-73
2024/04/14 06:07:31;;;;;;;14.93;5.50;;;;;;;14.40;52.44;101474.88;5277802;27;20219;-74
2024/04/14 06:09:56;;;;;;;13.47;4.23;;;;;;;14.18;52.81;101470.38;5277150;27;20697;-74
2024/04/14 06:12:21;;;;;;;12.63;4.03;;;;;;;14.30;52.47;101467.81;5277131;27;20294;-75
2024/04/14 06:14:47;;;;;;;29.17;18.63;;;;;;;14.43;52.48;101464.41;5247360;27;20227;-75
2024/04/14 06:17:12;;;;;;;9.83;4.27;;;;;;;14.46;51.95;101464.44;5277160;27;20262;-75
2024/04/14 06:19:37;;;;;;;11.47;4.43;;;;;;;13.97;52.47;101475.47;5276708;27;20227;-74
2024/04/14 06:22:03;;;;;;;13.03;3.77;;;;;;;13.56;53.53;101490.88;5276661;27;20238;-73
2024/04/14 06:24:28;;;;;;;11.60;4.27;;;;;;;13.62;52.34;101469.94;5276405;27;20222;-74
2024/04/14 06:26:53;;;;;;;7.73;3.60;;;;;;;14.04;52.00;101468.53;5246991;27;20227;-74
2024/04/14 06:29:18;;;;;;;10.30;3.80;;;;;;;14.31;51.28;101465.22;5276021;27;20223;-74
2024/04/14 06:31:45;;;;;;;11.03;3.33;;;;;;;14.22;51.90;101464.28;5247179;27;20223;-73
2024/04/14 06:34:10;;;;;;;9.90;4.03;;;;;;;14.20;52.19;101480.00;5247885;27;20223;-74
2024/04/14 06:36:35;;;;;;;13.00;4.10;;;;;;;14.74;51.98;101476.84;5276935;27;20819;-74
2024/04/14 06:39:01;;;;;;;12.10;3.77;;;;;;;14.83;50.85;101471.63;5276674;27;20709;-73
2024/04/14 06:41:26;;;;;;;11.80;3.90;;;;;;;14.93;50.73;101475.16;5276915;27;20741;-75
2024/04/14 06:43:51;;;;;;;9.40;3.50;;;;;;;14.81;51.49;101479.47;5276842;27;20278;-73
2024/04/14 06:46:16;;;;;;;11.53;3.83;;;;;;;14.23;52.05;101492.25;5276860;27;20231;-75
2024/04/14 06:48:42;;;;;;;7.63;3.67;;;;;;;14.30;52.16;101496.66;5276678;27;20558;-74
2024/04/14 06:51:07;;;;;;;8.33;3.70;;;;;;;14.70;51.31;101489.06;5276881;27;20227;-74
2024/04/14 06:53:32;;;;;;;9.77;3.20;;;;;;;15.09;50.89;101478.72;5247022;27;20337;-75
2024/04/14 06:56:00;;;;;;;13.20;3.60;;;;;;;15.26;50.38;101487.50;5276686;27;20243;-75
2024/04/14 06:58:25;;;;;;;9.63;3.60;;;;;;;14.78;50.14;101495.22;5277023;27;20705;-74
2024/04/14 07:00:51;;;;;;;8.50;3.53;;;;;;;15.04;49.76;101491.81;5277335;27;20471;-74
2024/04/14 07:03:16;;;;;;;11.53;4.27;;;;;;;14.64;50.04;101494.28;5276636;27;20230;-75
2024/04/14 07:05:41;;;;;;;11.53;3.97;;;;;;;15.46;48.96;101499.78;5247360;27;20608;-75
2024/04/14 07:08:07;;;;;;;8.47;3.50;;;;;;;14.94;50.27;101505.78;5276938;27;20215;-75
2024/04/14 07:10:32;;;;;;;11.43;3.73;;;;;;;15.15;49.36;101499.72;5277133;27;20578;-74
2024/04/14 07:12:57;;;;;;;14.97;4.50;;;;;;;14.90;49.58;101499.66;5276901;27;20243;-73
2024/04/14 07:15:23;;;;;;;12.30;3.97;;;;;;;15.05;50.03;101503.22;5276501;27;20225;-74
2024/04/14 07:17:48;;;;;;;13.20;4.20;;;;;;;15.20;49.74;101497.13;5276154;27;20226;-75
2024/04/14 07:20:13;;;;;;;10.17;4.70;;;;;;;14.85;49.98;101501.38;5276166;27;20218;-75
2024/04/14 07:22:39;;;;;;;12.30;5.70;;;;;;;14.85;50.55;101513.63;5276310;27;20664;-75
2024/04/14 07:25:04;;;;;;;7.60;3.40;;;;;;;15.16;49.15;101506.72;5276235;27;20238;-75
2024/04/14 07:27:29;;;;;;;9.40;3.60;;;;;;;14.26;49.45;101515.88;5276311;27;20231;-72
2024/04/14 07:29:54;;;;;;;9.87;5.70;;;;;;;15.21;48.92;101522.50;5275830;27;20265;-74
2024/04/14 07:32:20;;;;;;;13.70;4.67;;;;;;;15.15;48.35;101513.75;5276041;27;20317;-74
2024/04/14 07:34:45;;;;;;;11.60;4.20;;;;;;;15.15;48.61;101519.00;5246423;27;20575;-74
2024/04/14 07:37:10;;;;;;;14.30;3.80;;;;;;;15.01;48.29;101520.69;5276255;27;20269;-74
2024/04/14 07:39:35;;;;;;;18.70;11.17;;;;;;;15.05;47.91;101522.47;5276132;27;20642;-73
2024/04/14 07:42:04;;;;;;;12.90;4.53;;;;;;;15.19;48.70;101529.50;5247995;27;20243;-74
2024/04/14 07:44:29;;;;;;;11.17;3.50;;;;;;;15.57;46.91;101534.84;5249396;27;20313;-74
2024/04/14 07:46:55;;;;;;;7.47;3.30;;;;;;;15.19;47.52;101535.63;5279395;27;20987;-73
2024/04/14 07:49:20;;;;;;;7.93;3.47;;;;;;;14.97;47.58;101542.56;5280314;27;20222;-74
2024/04/14 07:51:45;;;;;;;17.40;3.60;;;;;;;15.41;47.94;101544.47;5250319;27;20689;-74
2024/04/14 07:54:10;;;;;;;12.20;4.77;;;;;;;16.20;45.74;101531.41;5249848;27;20262;-74
2024/04/14 07:56:37;;;;;;;14.63;4.53;;;;;;;16.03;46.86;101539.28;5250245;27;20249;-74
2024/04/14 07:59:04;;;;;;;10.20;3.90;;;;;;;16.00;45.08;101542.78;5249758;27;20270;-73
2024/04/14 08:01:30;;;;;;;13.93;4.10;;;;;;;16.03;45.12;101544.56;5249682;27;20888;-74
2024/04/14 08:03:55;;;;;;;11.87;4.37;;;;;;;15.56;45.60;101554.13;5278865;27;20545;-73
2024/04/14 08:06:20;;;;;;;7.50;3.53;;;;;;;15.11;47.08;101555.75;5278946;27;20265;-73
2024/04/14 08:08:46;;;;;;;9.00;3.80;;;;;;;15.62;45.47;101548.88;5278807;27;20270;-73
2024/04/14 08:11:11;;;;;;;8.50;3.20;;;;;;;15.91;44.72;101549.81;5278771;27;20265;-74
2024/04/14 08:13:37;;;;;;;7.43;3.03;;;;;;;15.69;44.47;101546.28;5248962;27;20286;-73
2024/04/14 08:16:02;;;;;;;12.70;3.73;;;;;;;15.63;44.35;101549.75;5249105;27;20258;-74
2024/04/14 08:18:27;;;;;;;8.40;3.40;;;;;;;16.03;45.10;101533.16;5278721;27;20381;-74
2024/04/14 08:21:00;;;;;;;8.37;3.20;;;;;;;15.50;45.85;101548.84;5279037;27;20666;-74
2024/04/14 08:23:26;;;;;;;8.53;3.40;;;;;;;15.71;43.28;101549.75;5278671;27;20235;-74
2024/04/14 08:25:51;;;;;;;7.77;3.40;;;;;;;15.45;44.28;101548.84;5279623;27;20493;-74
2024/04/14 08:28:16;;;;;;;9.73;3.70;;;;;;;15.98;42.98;101554.22;5278320;27;20415;-74
2024/04/14 08:30:43;;;;;;;8.83;3.40;;;;;;;16.05;44.23;101574.38;5278643;27;20235;-75
2024/04/14 08:33:08;;;;;;;5.77;2.77;;;;;;;15.96;43.17;101558.59;5248362;27;20353;-74
2024/04/14 08:35:34;;;;;;;9.23;3.10;;;;;;;16.63;42.41;101554.16;5278215;27;20594;-74
2024/04/14 08:37:59;;;;;;;8.33;3.40;;;;;;;15.65;42.44;101574.28;5277664;27;20223;-74
2024/04/14 08:40:25;;;;;;;10.07;3.90;;;;;;;16.69;41.27;101559.38;5277485;27;20454;-74
2024/04/14 08:42:51;;;;;;;6.83;3.40;;;;;;;15.92;41.61;101556.84;5277535;27;20557;-73
2024/04/14 08:45:22;;;;;;;12.77;3.60;;;;;;;16.26;42.88;101551.56;5277617;27;20219;-74
2024/04/14 08:47:53;;;;;;;12.67;3.70;;;;;;;16.27;42.89;101569.09;5280239;27;20995;-74
2024/04/14 08:50:21;;;;;;;11.13;3.40;;;;;;;16.18;43.16;101572.59;5280899;27;20471;-74
2024/04/14 08:52:47;;;;;;;6.87;3.23;;;;;;;15.92;43.64;101575.25;5277974;27;20458;-74
2024/04/14 08:55:13;;;;;;;7.60;3.00;;;;;;;16.95;42.31;101566.34;5279071;27;20518;-74
2024/04/14 08:57:40;;;;;;;8.13;3.17;;;;;;;16.62;43.26;101573.44;5277831;27;20265;-74
2024/04/14 09:00:10;;;;;;;6.47;3.03;;;;;;;16.55;44.00;101564.69;5277843;27;20502;-74
2024/04/14 09:02:39;;;;;;;11.90;3.47;;;;;;;16.74;43.54;101570.78;5278018;27;20477;-74
2024/04/14 09:05:11;;;;;;;8.33;3.33;;;;;;;16.70;42.10;101574.31;5278155;27;20851;-74
2024/04/14 09:07:36;;;;;;;6.50;3.03;;;;;;;16.36;43.10;101570.84;5278500;27;20446;-75
2024/04/14 09:10:04;;;;;;;8.73;3.23;;;;;;;16.57;41.62;101567.31;5278342;27;20998;-74
2024/04/14 09:12:29;;;;;;;8.70;3.37;;;;;;;17.08;42.98;101573.34;5277893;27;20766;-74
2024/04/14 09:14:54;;;;;;;8.40;3.90;;;;;;;16.32;43.41;101585.78;5247838;27;20491;-75
2024/04/14 09:17:20;;;;;;;8.50;4.37;;;;;;;16.88;43.34;101580.41;5277694;27;20321;-72
2024/04/14 09:19:45;;;;;;;13.73;5.37;;;;;;;16.95;43.12;101584.78;5277760;27;20227;-74
2024/04/14 09:22:10;;;;;;;8.70;3.60;;;;;;;17.28;41.67;101585.56;5277538;27;20265;-75
2024/04/14 09:24:35;;;;;;;11.73;3.30;;;;;;;17.50;40.88;101587.19;5277837;27;20266;-75
2024/04/14 09:27:01;;;;;;;6.90;3.40;;;;;;;17.50;40.17;101595.09;5278003;27;20329;-74
2024/04/14 09:29:26;;;;;;;7.93;3.40;;;;;;;17.65;40.98;101569.53;5277678;27;20277;-75
2024/04/14 09:31:52;;;;;;;8.67;3.17;;;;;;;17.19;42.78;101586.47;5247851;27;20266;-74
2024/04/14 09:34:17;;;;;;;8.00;3.10;;;;;;;17.13;41.38;101590.00;5248421;27;20270;-74
2024/04/14 09:36:43;;;;;;;8.50;3.43;;;;;;;17.65;40.77;101574.81;5277985;27;20706;-74
2024/04/14 09:39:09;;;;;;;5.63;2.70;;;;;;;18.07;39.66;101585.09;5277584;27;20235;-74
2024/04/14 09:41:36;;;;;;;10.07;3.60;;;;;;;18.08;40.14;101576.28;5247557;27;20273;-74
2024/04/14 09:44:02;;;;;;;8.13;3.50;;;;;;;18.24;38.73;101574.38;5278355;27;20231;-75
2024/04/14 09:46:27;;;;;;;5.87;3.30;;;;;;;18.60;39.26;101581.06;5278151;27;20570;-74
2024/04/14 09:48:53;;;;;;;5.00;2.50;;;;;;;18.98;37.76;101585.13;5248096;27;20458;-74
2024/04/14 09:51:19;;;;;;;10.47;3.13;;;;;;;17.94;38.38;101584.28;5277746;27;20575;-74
2024/04/14 09:53:45;;;;;;;7.03;2.90;;;;;;;18.79;37.15;101584.38;5277487;27;20510;-73
2024/04/14 09:56:10;;;;;;;4.93;2.93;;;;;;;18.75;36.88;101584.44;5244738;27;20364;-74
2024/04/14 09:58:36;;;;;;;7.20;2.80;;;;;;;18.81;37.65;101600.25;5243903;27;20232;-73
2024/04/14 10:01:09;;;;;;;5.00;2.77;;;;;;;18.26;38.75;101591.94;5243947;27;20224;-75
2024/04/14 10:03:36;;;;;;;7.50;2.80;;;;;;;17.44;38.94;101604.78;5213580;27;20287;-73
2024/04/14 10:06:03;;;;;;;6.40;3.50;;;;;;;17.46;38.97;101603.91;5242763;27;20444;-74
2024/04/14 10:08:32;;;;;;;4.97;2.80;;;;;;;16.72;40.14;101604.13;5243374;27;20591;-75
2024/04/14 10:10:57;;;;;;;8.23;3.37;;;;;;;16.69;39.58;101606.78;5243918;27;20468;-75
2024/04/14 10:13:23;;;;;;;6.27;3.97;;;;;;;18.42;37.58;101600.63;5214326;27;20531;-75
2024/04/14 10:15:58;;;;;;;5.43;2.80;;;;;;;18.50;36.65;101588.22;5243861;27;20224;-74
2024/04/14 10:18:25;;;;;;;5.97;3.07;;;;;;;18.20;36.40;101604.31;5243857;27;20338;-75
2024/04/14 10:20:50;;;;;;;6.27;2.80;;;;;;;17.32;37.89;101595.22;5214003;27;20459;-75
2024/04/14 10:23:17;;;;;;;6.93;2.87;;;;;;;18.21;37.41;101591.09;5243199;27;20504;-74
2024/04/14 10:25:50;;;;;;;6.60;3.40;;;;;;;17.87;38.33;101593.13;5243758;27;20246;-75
2024/04/14 10:28:20;;;;;;;4.90;2.73;;;;;;;18.74;38.21;101594.16;5243695;27;20444;-74
2024/04/14 10:30:45;;;;;;;7.50;3.57;;;;;;;18.77;36.97;101594.09;5243533;27;20786;-75
2024/04/14 10:33:23;;;;;;;11.67;3.90;;;;;;;18.62;37.53;101594.28;5243327;27;20718;-76
2024/04/14 10:36:07;;;;;;;10.70;3.40;;;;;;;18.73;36.44;101597.69;5243415;27;20754;-75
2024/04/14 10:38:34;;;;;;;4.73;3.03;;;;;;;18.88;36.17;101601.06;5213523;27;20496;-74
2024/04/14 10:41:00;;;;;;;7.50;3.60;;;;;;;18.23;35.56;101599.03;5216853;27;20468;-74
2024/04/14 10:43:26;;;;;;;6.43;2.70;;;;;;;19.79;33.55;101586.66;5246909;27;20526;-75
2024/04/14 10:45:52;;;;;;;7.87;3.13;;;;;;;19.36;34.01;101601.34;5276933;27;20286;-75
2024/04/14 10:48:17;;;;;;;5.00;2.60;;;;;;;19.35;32.28;101595.22;5277301;27;20442;-76
2024/04/14 10:50:42;;;;;;;5.53;2.70;;;;;;;19.27;33.37;101593.56;5276909;27;20570;-75
2024/04/14 10:53:09;;;;;;;4.63;2.50;;;;;;;19.84;32.78;101591.00;5276846;27;20273;-75
2024/04/14 10:55:34;;;;;;;11.00;3.20;;;;;;;20.09;33.05;101600.34;5276619;27;20279;-75
2024/04/14 10:57:59;;;;;;;4.97;2.60;;;;;;;20.88;32.22;101585.69;5276781;27;20853;-74
2024/04/14 11:00:25;;;;;;;7.20;3.07;;;;;;;19.71;34.08;101596.50;5247226;27;20328;-74
2024/04/14 11:02:51;;;;;;;5.23;2.57;;;;;;;19.88;33.32;101594.50;5277278;27;20285;-75
2024/04/14 11:05:17;;;;;;;5.90;3.10;;;;;;;20.75;31.97;101588.59;5247578;27;20771;-75
2024/04/14 11:07:43;;;;;;;7.13;3.00;;;;;;;20.93;31.61;101584.75;5276396;27;20434;-73
2024/04/14 11:10:09;;;;;;;4.63;2.60;;;;;;;20.39;30.78;101598.06;5276382;27;20446;-75
2024/04/14 11:12:35;;;;;;;5.80;3.40;;;;;;;21.24;31.16;101588.50;5246725;27;20842;-74
2024/04/14 11:15:05;;;;;;;8.10;3.33;;;;;;;22.35;30.82;101575.31;5276662;27;20226;-75